createdAt,value
2022-09-20T00:01:22.747Z,9.40
2022-09-20T00:03:52.326Z,9.50
2022-09-20T00:06:21.961Z,9.40
2022-09-20T00:08:49.527Z,9.40
2022-09-20T00:11:20.199Z,9.40
2022-09-20T00:13:49.383Z,9.40
2022-09-20T00:16:21.298Z,9.50
2022-09-20T00:18:49.882Z,9.50
2022-09-20T00:21:18.805Z,9.50
2022-09-20T00:23:45.928Z,9.50
2022-09-20T00:26:13.937Z,9.60
2022-09-20T00:28:41.956Z,9.60
2022-09-20T00:31:09.152Z,9.60
2022-09-20T00:33:54.322Z,9.70
2022-09-20T00:36:21.424Z,9.70
2022-09-20T00:38:48.416Z,9.70
2022-09-20T00:41:15.686Z,9.70
2022-09-20T00:43:45.084Z,9.70
2022-09-20T00:46:37.928Z,9.70
2022-09-20T00:49:22.627Z,9.70
2022-09-20T00:51:55.556Z,9.80
2022-09-20T00:54:23.975Z,9.70
2022-09-20T00:56:51.578Z,9.60
2022-09-20T00:59:28.504Z,9.60
2022-09-20T01:02:21.958Z,9.60
2022-09-20T01:04:50.082Z,9.50
2022-09-20T01:07:22.272Z,9.50
2022-09-20T01:09:50.224Z,9.50
2022-09-20T01:12:21.036Z,9.50
2022-09-20T01:14:50.980Z,9.40
2022-09-20T01:17:22.604Z,9.50
2022-09-20T01:20:10.276Z,9.50
2022-09-20T01:22:36.988Z,9.50
2022-09-20T01:25:22.519Z,9.50
2022-09-20T01:27:50.935Z,9.50
2022-09-20T01:30:29.121Z,9.50
2022-09-20T01:33:21.023Z,9.40
2022-09-20T01:35:53.980Z,9.40
2022-09-20T01:38:24.056Z,9.40
2022-09-20T01:41:06.865Z,9.30
2022-09-20T01:43:36.260Z,9.30
2022-09-20T01:46:26.989Z,9.30
2022-09-20T01:49:05.544Z,9.20
2022-09-20T01:51:51.696Z,9.20
2022-09-20T01:54:40.427Z,9.10
2022-09-20T01:57:22.640Z,9.20
2022-09-20T02:00:27.476Z,9.20
2022-09-20T02:02:54.521Z,9.20
2022-09-20T02:05:42.226Z,9.10
2022-09-20T02:08:18.186Z,9.10
2022-09-20T02:11:14.494Z,9.20
2022-09-20T02:13:41.505Z,9.10
2022-09-20T02:16:29.727Z,9.10
2022-09-20T02:19:27.638Z,9.00
2022-09-20T02:22:21.499Z,9.00
2022-09-20T02:25:14.800Z,9.00
2022-09-20T02:28:07.504Z,9.00
2022-09-20T02:30:49.959Z,9.00
2022-09-20T02:33:19.611Z,9.10
2022-09-20T02:35:55.801Z,9.10
2022-09-20T02:38:34.714Z,9.10
2022-09-20T02:41:51.719Z,9.10
2022-09-20T02:44:37.517Z,9.20
2022-09-20T02:47:37.217Z,9.10
2022-09-20T02:50:23.088Z,9.20
2022-09-20T02:53:12.005Z,9.30
2022-09-20T02:55:43.115Z,9.30
2022-09-20T02:58:38.735Z,9.30
2022-09-20T03:01:22.901Z,9.40
2022-09-20T03:03:52.910Z,9.40
2022-09-20T03:06:55.650Z,9.50
2022-09-20T03:09:48.126Z,9.50
2022-09-20T03:12:36.501Z,9.50
2022-09-20T03:15:25.039Z,9.50
2022-09-20T03:18:29.566Z,9.50
2022-09-20T03:21:36.927Z,9.50
2022-09-20T03:24:22.620Z,9.50
2022-09-20T03:26:56.030Z,9.60
2022-09-20T03:29:41.202Z,9.60
2022-09-20T03:32:42.427Z,9.60
2022-09-20T03:35:31.282Z,9.60
2022-09-20T03:38:13.230Z,9.50
2022-09-20T03:41:05.321Z,9.50
2022-09-20T03:43:57.243Z,9.50
2022-09-20T03:46:47.813Z,9.50
2022-09-20T03:49:42.710Z,9.50
2022-09-20T03:52:48.440Z,9.50
2022-09-20T03:55:41.981Z,9.50
2022-09-20T03:58:24.391Z,9.50
2022-09-20T04:01:20.201Z,9.40
2022-09-20T04:03:50.049Z,9.30
2022-09-20T04:06:23.127Z,9.30
2022-09-20T04:08:59.638Z,9.20
2022-09-20T04:11:44.219Z,9.10
2022-09-20T04:14:21.400Z,9.10
2022-09-20T04:17:20.624Z,9.00
2022-09-20T04:19:59.869Z,9.00
2022-09-20T04:22:29.528Z,9.00
2022-09-20T04:25:09.791Z,8.90
2022-09-20T04:27:42.369Z,8.90
2022-09-20T04:30:15.357Z,8.80
2022-09-20T04:32:52.620Z,8.70
2022-09-20T04:36:00.090Z,8.60
2022-09-20T04:38:27.828Z,8.60
2022-09-20T04:41:16.584Z,8.60
2022-09-20T04:43:55.867Z,8.70
2022-09-20T04:46:55.819Z,8.60
2022-09-20T04:49:48.030Z,8.60
2022-09-20T04:52:26.372Z,8.50
2022-09-20T04:55:18.330Z,8.50
2022-09-20T04:58:13.225Z,8.50
2022-09-20T05:01:07.790Z,8.40
2022-09-20T05:03:52.907Z,8.40
2022-09-20T05:06:50.917Z,8.40
2022-09-20T05:09:33.542Z,8.40
2022-09-20T05:12:37.424Z,8.40
2022-09-20T05:15:35.534Z,8.30
2022-09-20T05:18:05.839Z,8.30
2022-09-20T05:20:59.572Z,8.40
2022-09-20T05:23:44.663Z,8.30
2022-09-20T05:26:11.849Z,8.30
2022-09-20T05:29:13.563Z,8.30
2022-09-20T05:32:10.691Z,8.30
2022-09-20T05:34:57.830Z,8.30
2022-09-20T05:37:51.012Z,8.40
2022-09-20T05:40:33.051Z,8.40
2022-09-20T05:43:13.819Z,8.50
2022-09-20T05:45:57.100Z,8.50
2022-09-20T05:48:44.159Z,8.50
2022-09-20T05:51:25.947Z,8.60
2022-09-20T05:54:11.582Z,8.60
2022-09-20T05:57:22.661Z,8.70
2022-09-20T06:00:20.880Z,8.80
2022-09-20T06:03:06.700Z,8.90
2022-09-20T06:06:10.876Z,9.00
2022-09-20T06:09:25.679Z,9.10
2022-09-20T06:12:21.840Z,9.30
2022-09-20T06:15:15.814Z,9.50
2022-09-20T06:17:55.054Z,9.70
2022-09-20T06:20:47.716Z,9.80
2022-09-20T06:23:15.175Z,9.90
2022-09-20T06:25:53.783Z,10.00
2022-09-20T06:28:24.188Z,10.10
2022-09-20T06:30:55.874Z,10.20
2022-09-20T06:33:28.423Z,10.30
2022-09-20T06:36:29.416Z,10.50
2022-09-20T06:39:27.173Z,10.70
2022-09-20T06:41:54.954Z,10.80
2022-09-20T06:44:22.593Z,10.80
2022-09-20T06:46:49.970Z,10.80
2022-09-20T06:49:17.367Z,10.80
2022-09-20T06:51:44.597Z,10.80
2022-09-20T06:54:18.420Z,10.80
2022-09-20T06:56:47.420Z,10.80
2022-09-20T06:59:15.447Z,10.80
2022-09-20T07:01:43.174Z,10.80
2022-09-20T07:04:10.362Z,10.90
2022-09-20T07:06:37.518Z,10.90
2022-09-20T07:09:07.315Z,11.00
2022-09-20T07:11:35.077Z,11.00
2022-09-20T07:14:02.432Z,11.00
2022-09-20T07:16:29.786Z,11.10
2022-09-20T07:18:57.094Z,11.10
2022-09-20T07:21:24.627Z,11.10
2022-09-20T07:23:54.041Z,11.10
2022-09-20T07:26:24.056Z,11.20
2022-09-20T07:28:51.591Z,11.20
2022-09-20T07:31:20.627Z,11.30
2022-09-20T07:33:47.948Z,11.30
2022-09-20T07:36:16.787Z,11.40
2022-09-20T07:38:47.650Z,11.40
2022-09-20T07:41:14.910Z,11.40
2022-09-20T07:43:42.103Z,11.40
2022-09-20T07:46:10.313Z,11.50
2022-09-20T07:48:38.473Z,11.50
2022-09-20T07:51:09.050Z,11.60
2022-09-20T07:53:37.274Z,11.50
2022-09-20T07:56:06.074Z,11.80
2022-09-20T07:58:35.242Z,11.90
2022-09-20T08:01:08.308Z,12.00
2022-09-20T08:03:36.495Z,12.00
2022-09-20T08:06:07.004Z,12.00
2022-09-20T08:08:39.371Z,12.10
2022-09-20T08:11:28.967Z,12.10
2022-09-20T08:14:13.119Z,12.20
2022-09-20T08:16:43.209Z,12.30
2022-09-20T08:19:18.989Z,12.40
2022-09-20T08:21:46.570Z,12.50
2022-09-20T08:24:14.587Z,12.70
2022-09-20T08:26:42.004Z,12.80
2022-09-20T08:29:12.744Z,13.00
2022-09-20T08:31:42.561Z,12.90
2022-09-20T08:34:12.902Z,13.10
2022-09-20T08:36:45.631Z,13.20
2022-09-20T08:42:28.006Z,13.40
2022-09-20T08:45:05.604Z,13.50
2022-09-20T08:47:37.068Z,13.70
2022-09-20T08:50:12.295Z,13.80
2022-09-20T08:52:49.757Z,14.00
2022-09-20T08:55:39.670Z,14.50
2022-09-20T08:58:11.277Z,14.60
2022-09-20T09:00:40.570Z,14.70
2022-09-20T09:03:13.434Z,14.80
2022-09-20T09:05:53.092Z,14.80
2022-09-20T09:08:27.610Z,14.80
2022-09-20T09:10:58.510Z,14.80
2022-09-20T09:13:53.284Z,14.60
2022-09-20T09:16:27.253Z,14.60
2022-09-20T09:18:57.264Z,14.70
2022-09-20T09:21:29.564Z,14.80
2022-09-20T09:24:04.914Z,15.00
2022-09-20T09:26:41.013Z,15.00
2022-09-20T09:29:21.316Z,15.20
2022-09-20T09:31:54.648Z,15.40
2022-09-20T09:34:26.534Z,15.50
2022-09-20T09:36:57.219Z,15.30
2022-09-20T09:39:40.726Z,15.20
2022-09-20T09:42:23.679Z,15.00
2022-09-20T09:44:50.950Z,14.60
2022-09-20T09:47:27.793Z,14.40
2022-09-20T09:50:01.912Z,14.20
2022-09-20T09:52:33.529Z,13.90
2022-09-20T09:55:05.287Z,13.70
2022-09-20T09:58:00.062Z,13.60
2022-09-20T10:00:28.600Z,13.60
2022-09-20T10:03:10.763Z,13.70
2022-09-20T10:06:11.598Z,13.80
2022-09-20T10:09:12.655Z,13.90
2022-09-20T10:12:03.505Z,14.00
2022-09-20T10:14:42.685Z,14.10
2022-09-20T10:17:28.598Z,14.40
2022-09-20T10:20:35.698Z,14.50
2022-09-20T10:24:03.232Z,14.80
2022-09-20T10:26:44.035Z,15.10
2022-09-20T10:29:36.379Z,15.20
2022-09-20T10:32:19.160Z,15.70
2022-09-20T10:35:14.448Z,16.00
2022-09-20T10:37:49.082Z,16.40
2022-09-20T10:40:25.187Z,17.20
2022-09-20T10:43:15.163Z,17.40
2022-09-20T10:49:05.512Z,17.60
2022-09-20T10:51:39.464Z,17.80
2022-09-20T10:54:25.168Z,17.70
2022-09-20T10:56:58.961Z,17.90
2022-09-20T10:59:33.712Z,18.10
2022-09-20T11:02:24.268Z,18.20
2022-09-20T11:05:03.868Z,18.00
2022-09-20T11:07:57.045Z,17.90
2022-09-20T11:10:39.460Z,17.80
2022-09-20T11:13:22.603Z,17.70
2022-09-20T11:16:10.091Z,17.80
2022-09-20T11:18:43.867Z,17.70
2022-09-20T11:21:20.211Z,17.70
2022-09-20T11:24:36.764Z,17.90
2022-09-20T11:27:13.109Z,18.40
2022-09-20T11:30:02.411Z,19.10
2022-09-20T11:32:37.601Z,19.40
2022-09-20T11:35:21.518Z,19.50
2022-09-20T11:37:57.416Z,19.40
2022-09-20T11:40:37.262Z,19.30
2022-09-20T11:43:08.351Z,18.90
2022-09-20T11:45:38.814Z,18.80
2022-09-20T11:48:53.070Z,18.70
2022-09-20T11:51:31.618Z,18.90
2022-09-20T11:54:28.199Z,19.20
2022-09-20T11:56:57.829Z,19.40
2022-09-20T11:59:41.220Z,19.60
2022-09-20T12:02:34.982Z,19.60
2022-09-20T12:05:05.182Z,19.40
2022-09-20T12:07:38.726Z,19.00
2022-09-20T12:10:21.166Z,18.70
2022-09-20T12:12:55.480Z,18.60
2022-09-20T12:15:28.182Z,18.60
2022-09-20T12:17:58.546Z,18.90
2022-09-20T12:20:58.643Z,19.30
2022-09-20T12:23:41.153Z,19.70
2022-09-20T12:26:23.465Z,19.60
2022-09-20T12:29:02.947Z,19.30
2022-09-20T12:31:31.779Z,19.30
2022-09-20T12:34:25.468Z,19.20
2022-09-20T12:36:55.312Z,19.50
2022-09-20T12:39:50.438Z,19.70
2022-09-20T12:42:23.379Z,19.70
2022-09-20T12:44:50.810Z,19.80
2022-09-20T12:47:28.067Z,19.90
2022-09-20T12:50:16.879Z,20.00
2022-09-20T12:53:02.459Z,19.70
2022-09-20T12:55:40.171Z,19.30
2022-09-20T12:58:14.570Z,18.90
2022-09-20T13:00:47.017Z,18.50
2022-09-20T13:03:29.397Z,17.40
2022-09-20T13:06:12.668Z,16.60
2022-09-20T13:08:43.061Z,15.80
2022-09-20T13:11:20.194Z,15.40
2022-09-20T13:14:10.981Z,14.90
2022-09-20T13:16:53.776Z,14.80
2022-09-20T13:19:39.202Z,14.60
2022-09-20T13:22:22.680Z,14.40
2022-09-20T13:24:59.840Z,14.30
2022-09-20T13:27:40.391Z,14.10
2022-09-20T13:30:27.347Z,13.90
2022-09-20T13:32:55.522Z,13.70
2022-09-20T13:35:24.900Z,13.50
2022-09-20T13:37:55.746Z,13.40
2022-09-20T13:40:33.429Z,13.20
2022-09-20T13:43:22.713Z,13.00
2022-09-20T13:46:01.292Z,12.90
2022-09-20T13:48:30.320Z,12.70
2022-09-20T13:50:58.684Z,12.70
2022-09-20T13:53:41.116Z,12.80
2022-09-20T13:56:20.318Z,12.90
2022-09-20T13:58:49.561Z,13.10
2022-09-20T14:01:36.200Z,13.20
2022-09-20T14:04:05.716Z,13.30
2022-09-20T14:06:33.810Z,13.40
2022-09-20T14:09:08.355Z,13.40
2022-09-20T14:11:39.127Z,13.40
2022-09-20T14:14:08.168Z,13.40
2022-09-20T14:16:39.930Z,13.40
2022-09-20T14:19:08.545Z,13.40
2022-09-20T14:21:37.570Z,13.30
2022-09-20T14:24:27.574Z,13.30
2022-09-20T14:27:16.777Z,13.30
2022-09-20T14:29:54.916Z,13.40
2022-09-20T14:32:22.169Z,13.40
2022-09-20T14:35:24.063Z,13.40
2022-09-20T14:38:09.058Z,13.50
2022-09-20T14:40:44.239Z,13.50
2022-09-20T14:43:23.681Z,13.60
2022-09-20T14:46:00.715Z,13.60
2022-09-20T14:48:42.871Z,13.60
2022-09-20T14:51:16.506Z,13.60
2022-09-20T14:53:45.366Z,13.70
2022-09-20T14:56:16.182Z,13.80
2022-09-20T14:59:06.887Z,13.90
2022-09-20T15:01:36.429Z,13.80
2022-09-20T15:04:19.154Z,13.80
2022-09-20T15:06:46.599Z,13.80
2022-09-20T15:09:14.745Z,13.80
2022-09-20T15:11:45.117Z,14.00
2022-09-20T15:14:12.319Z,14.00
2022-09-20T15:16:39.579Z,14.00
2022-09-20T15:19:08.600Z,14.10
2022-09-20T15:21:36.780Z,14.00
2022-09-20T15:24:04.954Z,13.90
2022-09-20T15:26:33.007Z,13.90
2022-09-20T15:29:01.175Z,13.90
2022-09-20T15:31:29.032Z,13.90
2022-09-20T15:33:56.534Z,13.90
2022-09-20T15:36:23.955Z,14.00
2022-09-20T15:38:54.197Z,14.00
2022-09-20T15:41:27.962Z,14.00
2022-09-20T15:43:57.811Z,13.90
2022-09-20T15:46:27.396Z,13.90
2022-09-20T15:48:56.493Z,13.80
2022-09-20T15:51:27.600Z,13.70
2022-09-20T15:54:04.250Z,13.70
2022-09-20T15:56:33.578Z,13.70
2022-09-20T15:59:03.429Z,13.70
2022-09-20T16:01:34.010Z,13.70
2022-09-20T16:04:11.332Z,13.60
2022-09-20T16:06:40.289Z,13.60
2022-09-20T16:09:08.237Z,13.60
2022-09-20T16:11:36.130Z,13.60
2022-09-20T16:14:03.936Z,13.50
2022-09-20T16:16:37.410Z,13.50
2022-09-20T16:19:18.418Z,13.40
2022-09-20T16:21:51.427Z,13.40
2022-09-20T16:24:40.571Z,13.30
2022-09-20T16:27:09.974Z,13.30
2022-09-20T16:29:43.314Z,13.30
2022-09-20T16:32:10.328Z,13.20
2022-09-20T16:34:37.718Z,13.20
2022-09-20T16:37:17.581Z,13.10
2022-09-20T16:39:45.016Z,13.10
2022-09-20T16:42:13.631Z,13.00
2022-09-20T16:44:42.927Z,13.00
2022-09-20T16:47:20.787Z,12.90
2022-09-20T16:49:48.880Z,12.80
2022-09-20T16:52:16.131Z,12.70
2022-09-20T16:54:43.243Z,12.70
2022-09-20T16:57:10.518Z,12.70
2022-09-20T16:59:37.712Z,12.60
2022-09-20T17:02:04.976Z,12.50
2022-09-20T17:04:32.326Z,12.40
2022-09-20T17:06:59.877Z,12.40
2022-09-20T17:09:28.544Z,12.30
2022-09-20T17:11:56.005Z,12.20
2022-09-20T17:14:25.302Z,12.20
2022-09-20T17:16:52.540Z,12.10
2022-09-20T17:19:21.723Z,12.00
2022-09-20T17:21:50.978Z,12.00
2022-09-20T17:24:20.265Z,11.90
2022-09-20T17:26:49.069Z,11.80
2022-09-20T17:29:18.061Z,11.80
2022-09-20T17:31:54.074Z,11.70
2022-09-20T17:34:22.325Z,11.60
2022-09-20T17:36:51.029Z,11.60
2022-09-20T17:39:18.923Z,11.50
2022-09-20T17:41:48.724Z,11.40
2022-09-20T17:44:17.221Z,11.50
2022-09-20T17:46:47.088Z,11.40
2022-09-20T17:49:19.765Z,11.30
2022-09-20T17:51:49.424Z,11.30
2022-09-20T17:54:17.213Z,11.10
2022-09-20T17:56:46.733Z,11.10
2022-09-20T17:59:17.787Z,11.10
2022-09-20T18:01:47.823Z,11.00
2022-09-20T18:04:16.174Z,10.90
2022-09-20T18:06:48.998Z,10.90
2022-09-20T18:09:20.837Z,10.90
2022-09-20T18:11:50.930Z,10.90
2022-09-20T18:14:21.153Z,10.80
2022-09-20T18:16:48.511Z,10.80
2022-09-20T18:19:16.327Z,10.80
2022-09-20T18:21:44.200Z,10.80
2022-09-20T18:24:12.416Z,10.70
2022-09-20T18:26:40.409Z,10.70
2022-09-20T18:29:11.500Z,10.70
2022-09-20T18:31:43.254Z,10.70
2022-09-20T18:34:19.085Z,10.70
2022-09-20T18:36:54.624Z,10.70
2022-09-20T18:39:27.191Z,10.70
2022-09-20T18:41:55.316Z,10.60
2022-09-20T18:44:23.337Z,10.60
2022-09-20T18:46:53.602Z,10.50
2022-09-20T18:49:21.931Z,10.50
2022-09-20T18:51:49.804Z,10.50
2022-09-20T18:54:17.517Z,10.50
2022-09-20T18:56:46.632Z,10.40
2022-09-20T18:59:17.138Z,10.40
2022-09-20T19:01:44.368Z,10.40
2022-09-20T19:04:30.364Z,10.40
2022-09-20T19:07:19.209Z,10.30
2022-09-20T19:09:49.328Z,10.30
2022-09-20T19:12:32.687Z,10.40
2022-09-20T19:15:09.091Z,10.40
2022-09-20T19:17:51.916Z,10.40
2022-09-20T19:20:42.278Z,10.40
2022-09-20T19:23:47.148Z,10.40
2022-09-20T19:26:26.793Z,10.40
2022-09-20T19:28:56.242Z,10.40
2022-09-20T19:31:28.152Z,10.40
2022-09-20T19:33:57.699Z,10.40
2022-09-20T19:36:31.029Z,10.40
2022-09-20T19:39:19.476Z,10.30
2022-09-20T19:42:04.002Z,10.30
2022-09-20T19:44:43.285Z,10.30
2022-09-20T19:47:10.506Z,10.30
2022-09-20T19:50:16.391Z,10.20
2022-09-20T19:52:45.366Z,10.20
2022-09-20T19:55:13.751Z,10.20
2022-09-20T19:57:47.382Z,10.10
2022-09-20T20:00:20.598Z,10.10
2022-09-20T20:02:48.530Z,10.00
2022-09-20T20:05:18.543Z,9.90
2022-09-20T20:08:01.919Z,9.80
2022-09-20T20:10:41.091Z,9.70
2022-09-20T20:13:51.652Z,9.70
2022-09-20T20:16:33.762Z,9.60
2022-09-20T20:19:22.216Z,9.50
2022-09-20T20:22:01.911Z,9.50
2022-09-20T20:24:48.043Z,9.40
2022-09-20T20:27:15.322Z,9.30
2022-09-20T20:29:42.663Z,9.30
2022-09-20T20:32:10.620Z,9.30
2022-09-20T20:34:38.066Z,9.20
2022-09-20T20:37:05.835Z,9.20
2022-09-20T20:39:33.070Z,9.10
2022-09-20T20:42:04.436Z,9.00
2022-09-20T20:44:35.115Z,9.00
2022-09-20T20:47:07.281Z,8.90
2022-09-20T20:49:34.907Z,8.90
2022-09-20T20:52:05.157Z,8.80
2022-09-20T20:54:32.908Z,8.70
2022-09-20T20:57:00.256Z,8.70
2022-09-20T20:59:27.454Z,8.60
2022-09-20T21:01:54.899Z,8.60
2022-09-20T21:04:22.148Z,8.50
2022-09-20T21:06:50.568Z,8.50
2022-09-20T21:09:17.750Z,8.40
2022-09-20T21:11:44.967Z,8.40
2022-09-20T21:14:13.046Z,8.40
2022-09-20T21:16:42.788Z,8.30
2022-09-20T21:19:13.765Z,8.30
2022-09-20T21:21:42.845Z,8.30
2022-09-20T21:24:12.206Z,8.30
2022-09-20T21:26:40.307Z,8.20
2022-09-20T21:29:11.040Z,8.10
2022-09-20T21:31:43.212Z,8.10
2022-09-20T21:34:12.296Z,8.10
2022-09-20T21:36:44.903Z,8.10
2022-09-20T21:39:12.959Z,8.00
2022-09-20T21:41:40.858Z,8.00
2022-09-20T21:44:10.807Z,7.90
2022-09-20T21:46:43.145Z,7.90
2022-09-20T21:49:12.422Z,7.90
2022-09-20T21:51:42.113Z,7.80
2022-09-20T21:54:10.116Z,7.80
2022-09-20T21:56:39.142Z,7.80
2022-09-20T21:59:07.482Z,7.70
2022-09-20T22:01:36.933Z,7.70
2022-09-20T22:04:09.645Z,7.70
2022-09-20T22:06:39.371Z,7.60
2022-09-20T22:09:09.095Z,7.60
2022-09-20T22:11:42.117Z,7.50
2022-09-20T22:14:11.329Z,7.50
2022-09-20T22:16:40.382Z,7.50
2022-09-20T22:19:09.907Z,7.40
2022-09-20T22:21:39.380Z,7.40
2022-09-20T22:24:08.120Z,7.40
2022-09-20T22:26:37.880Z,7.40
2022-09-20T22:29:05.306Z,7.40
2022-09-20T22:31:35.287Z,7.30
2022-09-20T22:34:05.250Z,7.30
2022-09-20T22:36:37.728Z,7.30
2022-09-20T22:39:09.962Z,7.30
2022-09-20T22:41:38.409Z,7.30
2022-09-20T22:44:06.355Z,7.20
2022-09-20T22:46:34.959Z,7.20
2022-09-20T22:49:03.981Z,7.20
2022-09-20T22:51:33.288Z,7.10
2022-09-20T22:54:04.699Z,7.10
2022-09-20T22:56:31.830Z,7.10
2022-09-20T22:59:09.245Z,7.10
2022-09-20T23:01:42.355Z,7.00
2022-09-20T23:04:12.472Z,7.00
2022-09-20T23:06:51.069Z,7.00
2022-09-20T23:09:18.646Z,6.90
2022-09-20T23:11:46.084Z,6.90
2022-09-20T23:14:15.202Z,6.90
2022-09-20T23:16:43.088Z,6.80
2022-09-20T23:19:11.183Z,6.80
2022-09-20T23:21:40.116Z,6.80
2022-09-20T23:24:09.552Z,6.80
2022-09-20T23:26:38.502Z,6.90
2022-09-20T23:29:14.045Z,6.70
2022-09-20T23:31:45.750Z,6.60
2022-09-20T23:34:14.225Z,6.80
2022-09-20T23:36:41.995Z,6.60
2022-09-20T23:39:09.772Z,6.60
2022-09-20T23:41:36.860Z,6.50
2022-09-20T23:44:06.475Z,6.50
2022-09-20T23:46:35.731Z,6.50
2022-09-20T23:49:10.861Z,6.50
2022-09-20T23:51:39.446Z,6.50
2022-09-20T23:54:10.031Z,6.40
2022-09-20T23:56:37.139Z,6.40
2022-09-20T23:59:04.071Z,6.40
